createdAt,value
2023-05-14T00:01:27.133Z,102.95
2023-05-14T00:03:56.953Z,111.30
2023-05-14T00:06:25.419Z,104.47
2023-05-14T00:08:53.599Z,105.10
2023-05-14T00:11:22.280Z,108.68
2023-05-14T00:13:50.962Z,110.63
2023-05-14T00:16:19.143Z,103.35
2023-05-14T00:18:47.391Z,113.53
2023-05-14T00:21:17.213Z,108.03
2023-05-14T00:23:45.532Z,113.43
2023-05-14T00:26:13.713Z,109.38
2023-05-14T00:28:41.818Z,112.57
2023-05-14T00:31:10.181Z,112.28
2023-05-14T00:33:38.475Z,113.55
2023-05-14T00:36:07.044Z,115.97
2023-05-14T00:38:37.173Z,118.22
2023-05-14T00:41:05.803Z,113.55
2023-05-14T00:43:34.104Z,121.25
2023-05-14T00:46:02.484Z,118.63
2023-05-14T00:48:31.126Z,115.30
2023-05-14T00:50:59.690Z,121.20
2023-05-14T00:53:28.522Z,116.10
2023-05-14T00:55:58.536Z,111.75
2023-05-14T00:58:27.021Z,124.07
2023-05-14T01:00:55.375Z,117.28
2023-05-14T01:03:23.640Z,118.47
2023-05-14T01:06:01.187Z,118.38
2023-05-14T01:08:37.556Z,118.50
2023-05-14T01:11:12.043Z,121.28
2023-05-14T01:13:47.774Z,110.65
2023-05-14T01:16:20.099Z,114.10
2023-05-14T01:18:51.983Z,113.03
2023-05-14T01:21:44.035Z,113.05
2023-05-14T01:24:12.266Z,118.35
2023-05-14T01:26:41.096Z,109.80
2023-05-14T01:29:18.105Z,112.40
2023-05-14T01:31:48.301Z,110.13
2023-05-14T01:34:17.480Z,112.93
2023-05-14T01:36:48.413Z,115.43
2023-05-14T01:39:17.234Z,114.80
2023-05-14T01:41:46.351Z,111.82
2023-05-14T01:44:14.735Z,114.82
2023-05-14T01:46:42.880Z,108.07
2023-05-14T01:49:11.278Z,119.38
2023-05-14T01:51:39.410Z,116.88
2023-05-14T01:54:08.954Z,107.50
2023-05-14T01:56:37.306Z,120.25
2023-05-14T01:59:05.529Z,106.97
2023-05-14T02:01:34.106Z,111.93
2023-05-14T02:04:02.566Z,114.22
2023-05-14T02:06:31.811Z,117.72
2023-05-14T02:09:00.152Z,107.30
2023-05-14T02:11:29.750Z,115.47
2023-05-14T02:13:57.863Z,110.43
2023-05-14T02:16:26.194Z,116.13
2023-05-14T02:18:54.605Z,113.55
2023-05-14T02:21:22.765Z,107.07
2023-05-14T02:23:51.249Z,111.30
2023-05-14T02:26:19.568Z,117.70
2023-05-14T02:28:49.315Z,109.90
2023-05-14T02:31:19.082Z,113.78
2023-05-14T02:33:47.488Z,112.97
2023-05-14T02:36:15.840Z,109.40
2023-05-14T02:38:43.981Z,108.15
2023-05-14T02:41:12.124Z,113.22
2023-05-14T02:43:41.317Z,108.80
2023-05-14T02:46:10.806Z,115.97
2023-05-14T02:48:38.938Z,106.07
2023-05-14T02:51:07.639Z,115.75
2023-05-14T02:53:35.832Z,109.28
2023-05-14T02:56:04.080Z,111.65
2023-05-14T02:58:32.408Z,106.13
2023-05-14T03:01:00.935Z,111.10
2023-05-14T03:03:30.917Z,117.07
2023-05-14T03:05:59.562Z,109.57
2023-05-14T03:08:28.107Z,116.05
2023-05-14T03:10:56.211Z,117.07
2023-05-14T03:13:24.368Z,119.28
2023-05-14T03:15:55.021Z,121.88
2023-05-14T03:18:23.289Z,110.85
2023-05-14T03:20:53.037Z,120.63
2023-05-14T03:23:21.176Z,114.90
2023-05-14T03:25:49.294Z,123.95
2023-05-14T03:28:17.676Z,115.55
2023-05-14T03:30:46.090Z,119.28
2023-05-14T03:33:14.302Z,115.32
2023-05-14T03:35:42.575Z,116.70
2023-05-14T03:38:12.199Z,114.72
2023-05-14T03:40:40.392Z,126.05
2023-05-14T03:43:08.602Z,128.48
2023-05-14T03:45:37.112Z,129.25
2023-05-14T03:48:05.937Z,119.88
2023-05-14T03:50:34.317Z,117.78
2023-05-14T03:53:02.508Z,115.13
2023-05-14T03:55:32.024Z,119.75
2023-05-14T03:58:00.648Z,119.38
2023-05-14T04:00:28.789Z,117.43
2023-05-14T04:02:57.141Z,122.82
2023-05-14T04:05:25.346Z,112.70
2023-05-14T04:07:53.634Z,111.55
2023-05-14T04:10:22.414Z,112.80
2023-05-14T04:12:52.119Z,119.88
2023-05-14T04:15:20.259Z,115.80
2023-05-14T04:17:48.588Z,116.28
2023-05-14T04:20:17.221Z,119.55
2023-05-14T04:22:45.679Z,109.28
2023-05-14T04:25:13.812Z,120.30
2023-05-14T04:27:42.189Z,111.40
2023-05-14T04:30:12.801Z,103.70
2023-05-14T04:32:40.929Z,107.13
2023-05-14T04:35:10.429Z,105.75
2023-05-14T04:37:38.671Z,104.57
2023-05-14T04:40:08.510Z,109.10
2023-05-14T04:42:36.856Z,108.18
2023-05-14T04:45:06.356Z,107.20
2023-05-14T04:47:36.012Z,99.05
2023-05-14T04:50:04.660Z,102.70
2023-05-14T04:52:32.745Z,100.00
2023-05-14T04:55:01.136Z,96.85
2023-05-14T04:57:29.488Z,104.63
2023-05-14T04:59:57.658Z,105.10
2023-05-14T05:02:25.935Z,108.63
2023-05-14T05:04:55.604Z,105.22
2023-05-14T05:07:23.895Z,113.15
2023-05-14T05:09:52.041Z,102.32
2023-05-14T05:12:20.487Z,111.63
2023-05-14T05:14:48.924Z,111.10
2023-05-14T05:17:17.119Z,99.88
2023-05-14T05:19:45.266Z,103.13
2023-05-14T05:22:16.630Z,111.15
2023-05-14T05:24:44.774Z,103.53
2023-05-14T05:27:12.874Z,102.43
2023-05-14T05:29:41.416Z,109.53
2023-05-14T05:32:09.703Z,102.13
2023-05-14T05:34:37.885Z,104.80
2023-05-14T05:37:07.000Z,107.60
2023-05-14T05:39:36.619Z,96.10
2023-05-14T05:42:06.693Z,98.32
2023-05-14T05:44:34.976Z,93.32
2023-05-14T05:47:03.149Z,95.80
2023-05-14T05:49:31.410Z,99.03
2023-05-14T05:51:59.697Z,93.05
2023-05-14T05:54:27.837Z,97.00
2023-05-14T05:56:57.326Z,105.45
2023-05-14T05:59:25.907Z,96.30
2023-05-14T06:01:54.229Z,105.68
2023-05-14T06:04:22.369Z,99.85
2023-05-14T06:06:50.747Z,101.05
2023-05-14T06:09:19.057Z,97.38
2023-05-14T06:11:47.263Z,98.95
2023-05-14T06:14:16.847Z,98.93
2023-05-14T06:16:45.157Z,91.60
2023-05-14T06:19:13.462Z,92.60
2023-05-14T06:21:41.784Z,86.05
2023-05-14T06:24:10.551Z,84.60
2023-05-14T06:26:38.663Z,84.68
2023-05-14T06:29:06.779Z,85.65
2023-05-14T06:31:36.570Z,89.97
2023-05-14T06:34:04.748Z,84.05
2023-05-14T06:36:32.885Z,85.68
2023-05-14T06:39:01.425Z,84.57
2023-05-14T06:41:29.612Z,83.65
2023-05-14T06:43:57.761Z,83.57
2023-05-14T06:46:26.167Z,80.50
2023-05-14T06:48:57.976Z,82.20
2023-05-14T06:51:27.785Z,77.07
2023-05-14T06:53:56.401Z,79.35
2023-05-14T06:56:24.988Z,80.55
2023-05-14T06:58:53.174Z,80.60
2023-05-14T07:01:21.378Z,78.68
2023-05-14T07:03:49.656Z,75.97
2023-05-14T07:06:19.259Z,71.95
2023-05-14T07:08:47.340Z,74.20
2023-05-14T07:11:15.957Z,76.97
2023-05-14T07:13:44.547Z,67.82
2023-05-14T07:16:12.780Z,68.55
2023-05-14T07:18:41.457Z,67.45
2023-05-14T07:21:09.564Z,72.82
2023-05-14T07:23:39.341Z,65.93
2023-05-14T07:26:07.554Z,63.63
2023-05-14T07:28:36.296Z,68.72
2023-05-14T07:31:05.059Z,64.85
2023-05-14T07:33:33.249Z,62.28
2023-05-14T07:36:01.537Z,59.38
2023-05-14T07:38:29.916Z,65.18
2023-05-14T07:40:59.581Z,63.67
2023-05-14T07:43:28.130Z,66.05
2023-05-14T07:45:56.785Z,62.50
2023-05-14T07:48:25.208Z,56.80
2023-05-14T07:50:53.937Z,56.45
2023-05-14T07:53:22.105Z,56.80
2023-05-14T07:55:50.521Z,54.83
2023-05-14T07:58:20.257Z,58.33
2023-05-14T08:00:48.465Z,55.63
2023-05-14T08:03:16.670Z,53.03
2023-05-14T08:05:45.581Z,56.00
2023-05-14T08:08:13.795Z,52.42
2023-05-14T08:10:42.214Z,55.53
2023-05-14T08:13:10.987Z,53.58
2023-05-14T08:15:40.885Z,58.13
2023-05-14T08:18:09.149Z,61.00
2023-05-14T08:20:37.728Z,58.67
2023-05-14T08:23:07.342Z,61.80
2023-05-14T08:25:35.576Z,57.65
2023-05-14T08:28:03.930Z,62.40
2023-05-14T08:30:32.211Z,54.63
2023-05-14T08:33:01.921Z,61.15
2023-05-14T08:35:30.372Z,51.22
2023-05-14T08:37:58.575Z,52.22
2023-05-14T08:40:27.235Z,49.58
2023-05-14T08:42:56.745Z,49.53
2023-05-14T08:45:33.957Z,48.67
2023-05-14T08:48:09.420Z,49.40
2023-05-14T08:50:38.117Z,50.22
2023-05-14T08:53:06.538Z,51.55
2023-05-14T08:55:35.395Z,47.90
2023-05-14T08:58:03.570Z,45.55
2023-05-14T09:00:31.973Z,48.25
2023-05-14T09:03:01.160Z,49.50
2023-05-14T09:05:30.885Z,44.72
2023-05-14T09:07:59.127Z,43.60
2023-05-14T09:10:27.514Z,49.50
2023-05-14T09:12:56.044Z,48.17
2023-05-14T09:15:26.478Z,43.45
2023-05-14T09:17:55.203Z,43.88
2023-05-14T09:20:24.827Z,38.50
2023-05-14T09:22:56.763Z,33.83
2023-05-14T09:25:28.359Z,36.28
2023-05-14T09:27:58.824Z,33.95
2023-05-14T09:30:27.438Z,37.67
2023-05-14T09:32:56.307Z,37.13
2023-05-14T09:35:25.988Z,36.67
2023-05-14T09:37:56.610Z,35.60
2023-05-14T09:40:25.580Z,34.63
2023-05-14T09:42:54.153Z,32.72
2023-05-14T09:45:22.302Z,34.92
2023-05-14T09:47:50.766Z,35.08
2023-05-14T09:50:18.972Z,32.08
2023-05-14T09:52:47.159Z,35.35
2023-05-14T09:55:17.395Z,30.08
2023-05-14T09:57:45.520Z,28.45
2023-05-14T10:00:16.174Z,29.52
2023-05-14T10:02:45.126Z,31.45
2023-05-14T10:05:15.908Z,29.25
2023-05-14T10:07:48.838Z,29.50
2023-05-14T10:10:21.154Z,27.52
2023-05-14T10:12:54.015Z,30.13
2023-05-14T10:15:26.737Z,26.40
2023-05-14T10:17:59.999Z,28.33
2023-05-14T10:20:29.093Z,26.55
2023-05-14T10:22:57.917Z,25.50
2023-05-14T10:25:28.205Z,24.85
2023-05-14T10:27:57.050Z,25.83
2023-05-14T10:30:25.881Z,24.98
2023-05-14T10:33:08.534Z,25.85
2023-05-14T10:35:58.960Z,26.75
2023-05-14T10:38:30.523Z,24.02
2023-05-14T10:41:02.399Z,25.63
2023-05-14T10:43:31.870Z,27.92
2023-05-14T10:46:01.663Z,23.85
2023-05-14T10:48:30.008Z,25.02
2023-05-14T10:50:58.938Z,25.52
2023-05-14T10:53:37.972Z,26.83
2023-05-14T10:56:09.364Z,24.05
2023-05-14T10:58:39.212Z,23.95
2023-05-14T11:01:08.869Z,24.33
2023-05-14T11:03:43.032Z,23.17
2023-05-14T11:06:12.210Z,24.02
2023-05-14T11:08:41.033Z,24.02
2023-05-14T11:11:11.661Z,22.98
2023-05-14T11:13:40.004Z,21.98
2023-05-14T11:16:21.621Z,21.92
2023-05-14T11:18:55.788Z,23.88
2023-05-14T11:21:24.404Z,20.48
2023-05-14T11:23:52.625Z,20.00
2023-05-14T11:26:22.812Z,19.58
2023-05-14T11:28:51.143Z,19.45
2023-05-14T11:31:19.473Z,20.05
2023-05-14T11:33:47.629Z,18.17
2023-05-14T11:36:15.949Z,17.85
2023-05-14T11:38:52.742Z,20.02
2023-05-14T11:41:23.216Z,22.17
2023-05-14T11:43:51.830Z,20.75
2023-05-14T11:46:20.731Z,19.20
2023-05-14T11:48:49.164Z,18.70
2023-05-14T11:51:17.767Z,17.65
2023-05-14T11:53:47.559Z,18.95
2023-05-14T11:56:15.988Z,18.27
2023-05-14T11:58:51.199Z,17.63
2023-05-14T12:01:19.570Z,17.90
2023-05-14T12:03:47.977Z,15.75
2023-05-14T12:06:16.199Z,16.30
2023-05-14T12:08:44.354Z,19.50
2023-05-14T12:11:12.686Z,18.48
2023-05-14T12:13:41.213Z,16.65
2023-05-14T12:16:10.967Z,16.23
2023-05-14T12:18:39.350Z,16.63
2023-05-14T12:21:09.003Z,17.60
2023-05-14T12:23:39.646Z,15.77
2023-05-14T12:26:09.321Z,16.75
2023-05-14T12:28:43.346Z,14.82
2023-05-14T12:31:13.463Z,16.48
2023-05-14T12:33:41.614Z,14.93
2023-05-14T12:36:21.124Z,19.52
2023-05-14T12:38:50.857Z,15.80
2023-05-14T12:41:19.202Z,20.13
2023-05-14T12:43:49.605Z,18.55
2023-05-14T12:46:19.521Z,16.05
2023-05-14T12:48:47.723Z,16.48
2023-05-14T12:51:15.917Z,16.08
2023-05-14T12:53:44.356Z,15.43
2023-05-14T12:56:13.010Z,16.40
2023-05-14T12:58:41.291Z,15.23
2023-05-14T13:01:10.241Z,14.32
2023-05-14T13:03:39.980Z,14.90
2023-05-14T13:06:09.001Z,15.45
2023-05-14T13:08:37.200Z,13.73
2023-05-14T13:11:05.729Z,14.15
2023-05-14T13:13:33.879Z,14.90
2023-05-14T13:16:01.983Z,15.65
2023-05-14T13:18:30.385Z,14.13
2023-05-14T13:21:00.159Z,14.10
2023-05-14T13:23:28.493Z,13.32
2023-05-14T13:25:56.577Z,13.85
2023-05-14T13:28:24.940Z,13.85
2023-05-14T13:31:07.921Z,13.18
2023-05-14T13:33:37.626Z,12.55
2023-05-14T13:36:08.195Z,14.00
2023-05-14T13:38:36.326Z,12.65
2023-05-14T13:41:04.771Z,12.63
2023-05-14T13:43:34.320Z,14.38
2023-05-14T13:46:03.579Z,14.63
2023-05-14T13:48:32.115Z,15.18
2023-05-14T13:51:00.769Z,12.52
2023-05-14T13:53:30.794Z,12.80
2023-05-14T13:56:01.284Z,16.05
2023-05-14T13:58:30.113Z,18.77
2023-05-14T14:00:58.269Z,12.88
2023-05-14T14:03:26.860Z,15.43
2023-05-14T14:05:55.252Z,13.43
2023-05-14T14:08:24.557Z,14.73
2023-05-14T14:10:55.790Z,13.93
2023-05-14T14:13:24.461Z,14.18
2023-05-14T14:15:52.861Z,15.43
2023-05-14T14:18:21.573Z,13.27
2023-05-14T14:20:49.811Z,16.08
2023-05-14T14:23:17.964Z,15.38
2023-05-14T14:25:46.564Z,18.83
2023-05-14T14:28:16.459Z,16.02
2023-05-14T14:30:44.869Z,15.00
2023-05-14T14:33:13.045Z,15.57
2023-05-14T14:35:41.444Z,18.40
2023-05-14T14:38:09.622Z,15.63
2023-05-14T14:40:37.867Z,12.32
2023-05-14T14:43:06.576Z,15.93
2023-05-14T14:45:36.468Z,19.98
2023-05-14T14:48:23.741Z,18.65
2023-05-14T14:50:52.815Z,15.75
2023-05-14T14:53:21.036Z,15.75
2023-05-14T14:55:49.352Z,17.00
2023-05-14T14:58:19.515Z,20.42
2023-05-14T15:00:49.579Z,15.20
2023-05-14T15:03:18.551Z,15.27
2023-05-14T15:05:47.370Z,17.05
2023-05-14T15:08:16.045Z,16.92
2023-05-14T15:10:45.292Z,16.75
2023-05-14T15:13:15.924Z,14.95
2023-05-14T15:15:44.267Z,17.38
2023-05-14T15:18:14.207Z,17.92
2023-05-14T15:20:42.795Z,15.95
2023-05-14T15:23:11.626Z,16.83
2023-05-14T15:25:40.220Z,15.77
2023-05-14T15:28:08.448Z,16.35
2023-05-14T15:30:36.801Z,17.23
2023-05-14T15:33:05.297Z,15.18
2023-05-14T15:35:35.065Z,17.40
2023-05-14T15:38:03.214Z,15.43
2023-05-14T15:40:31.444Z,16.55
2023-05-14T15:42:59.768Z,19.20
2023-05-14T15:45:28.187Z,17.35
2023-05-14T15:47:56.377Z,17.67
2023-05-14T15:50:25.827Z,18.65
2023-05-14T15:52:55.858Z,16.67
2023-05-14T15:55:24.022Z,17.30
2023-05-14T15:57:52.162Z,17.05
2023-05-14T16:00:21.457Z,16.25
2023-05-14T16:02:49.788Z,16.98
2023-05-14T16:05:17.962Z,16.95
2023-05-14T16:07:46.655Z,13.65
2023-05-14T16:10:16.598Z,15.77
2023-05-14T16:12:44.718Z,15.75
2023-05-14T16:15:13.075Z,18.08
2023-05-14T16:17:41.851Z,16.05
2023-05-14T16:20:11.088Z,15.57
2023-05-14T16:22:39.187Z,17.05
2023-05-14T16:25:08.092Z,17.40
2023-05-14T16:27:37.878Z,16.40
2023-05-14T16:30:07.302Z,19.20
2023-05-14T16:32:35.392Z,15.68
2023-05-14T16:35:03.757Z,13.38
2023-05-14T16:37:32.583Z,18.52
2023-05-14T16:40:00.734Z,17.08
2023-05-14T16:42:29.306Z,19.65
2023-05-14T16:44:58.839Z,23.90
2023-05-14T16:47:27.004Z,18.08
2023-05-14T16:49:55.306Z,27.27
2023-05-14T16:52:23.517Z,20.23
2023-05-14T16:54:51.682Z,19.10
2023-05-14T16:57:20.230Z,17.88
2023-05-14T16:59:48.469Z,19.70
2023-05-14T17:02:18.223Z,16.27
2023-05-14T17:04:46.548Z,16.75
2023-05-14T17:07:15.067Z,16.95
2023-05-14T17:09:43.440Z,17.38
2023-05-14T17:12:13.628Z,14.95
2023-05-14T17:14:41.855Z,15.70
2023-05-14T17:17:09.974Z,15.10
2023-05-14T17:19:39.579Z,12.80
2023-05-14T17:22:07.814Z,15.30
2023-05-14T17:24:37.620Z,15.10
2023-05-14T17:27:07.370Z,15.93
2023-05-14T17:29:35.718Z,16.80
2023-05-14T17:32:04.934Z,18.08
2023-05-14T17:34:33.344Z,20.45
2023-05-14T17:37:02.902Z,19.25
2023-05-14T17:39:31.006Z,20.65
2023-05-14T17:41:59.221Z,18.45
2023-05-14T17:44:27.476Z,18.70
2023-05-14T17:46:55.657Z,18.80
2023-05-14T17:49:23.985Z,18.63
2023-05-14T17:51:52.151Z,18.92
2023-05-14T17:54:21.679Z,21.13
2023-05-14T17:56:50.993Z,18.05
2023-05-14T17:59:19.162Z,18.25
2023-05-14T18:01:47.281Z,23.48
2023-05-14T18:04:15.989Z,19.75
2023-05-14T18:06:45.900Z,19.38
2023-05-14T18:09:14.124Z,17.60
2023-05-14T18:11:44.077Z,18.70
2023-05-14T18:14:12.379Z,18.42
2023-05-14T18:16:40.688Z,18.27
2023-05-14T18:19:09.149Z,17.65
2023-05-14T18:21:37.559Z,17.40
2023-05-14T18:24:06.414Z,18.52
2023-05-14T18:26:35.502Z,20.08
2023-05-14T18:29:05.145Z,20.52
2023-05-14T18:31:33.357Z,20.13
2023-05-14T18:34:01.586Z,20.35
2023-05-14T18:36:30.043Z,21.08
2023-05-14T18:38:58.193Z,20.05
2023-05-14T18:41:26.406Z,18.77
2023-05-14T18:43:54.589Z,22.13
2023-05-14T18:46:24.644Z,20.83
2023-05-14T18:48:52.909Z,19.92
2023-05-14T18:51:21.143Z,19.48
2023-05-14T18:53:49.327Z,19.40
2023-05-14T18:56:17.572Z,22.45
2023-05-14T18:58:45.755Z,22.75
2023-05-14T19:01:14.061Z,20.98
2023-05-14T19:03:43.927Z,22.00
2023-05-14T19:06:12.953Z,21.90
2023-05-14T19:08:41.772Z,23.58
2023-05-14T19:11:09.986Z,24.27
2023-05-14T19:13:38.277Z,22.75
2023-05-14T19:16:06.878Z,30.98
2023-05-14T19:18:35.390Z,27.23
2023-05-14T19:21:05.076Z,26.55
2023-05-14T19:23:33.188Z,39.25
2023-05-14T19:26:01.480Z,41.97
2023-05-14T19:28:30.008Z,38.17
2023-05-14T19:30:58.140Z,29.02
2023-05-14T19:33:27.723Z,26.80
2023-05-14T19:35:56.693Z,28.98
2023-05-14T19:38:26.225Z,26.27
2023-05-14T19:40:56.911Z,29.45
2023-05-14T19:43:25.620Z,27.38
2023-05-14T19:45:53.840Z,29.48
2023-05-14T19:48:23.361Z,31.33
2023-05-14T19:50:51.921Z,26.85
2023-05-14T19:53:20.200Z,31.27
2023-05-14T19:55:49.798Z,29.42
2023-05-14T19:58:18.067Z,33.72
2023-05-14T20:00:47.348Z,32.40
2023-05-14T20:03:15.951Z,30.10
2023-05-14T20:05:46.225Z,31.13
2023-05-14T20:08:14.392Z,30.65
2023-05-14T20:10:42.618Z,31.83
2023-05-14T20:13:12.243Z,35.05
2023-05-14T20:15:40.684Z,32.33
2023-05-14T20:18:09.089Z,30.05
2023-05-14T20:20:37.513Z,32.75
2023-05-14T20:23:05.681Z,29.67
2023-05-14T20:25:34.134Z,30.50
2023-05-14T20:28:02.356Z,27.67
2023-05-14T20:30:32.085Z,33.38
2023-05-14T20:33:00.449Z,33.13
2023-05-14T20:35:28.844Z,30.17
2023-05-14T20:37:57.575Z,32.97
2023-05-14T20:40:26.201Z,36.38
2023-05-14T20:42:54.832Z,29.67
2023-05-14T20:45:23.437Z,35.58
2023-05-14T20:47:53.331Z,38.53
2023-05-14T20:50:22.672Z,32.65
2023-05-14T20:52:50.897Z,31.67
2023-05-14T20:55:19.040Z,39.38
2023-05-14T20:57:47.394Z,36.75
2023-05-14T21:00:16.253Z,39.58
2023-05-14T21:02:44.679Z,34.30
2023-05-14T21:05:14.992Z,34.15
2023-05-14T21:07:43.321Z,33.15
2023-05-14T21:10:12.387Z,31.88
2023-05-14T21:12:42.598Z,37.90
2023-05-14T21:15:12.044Z,33.72
2023-05-14T21:17:40.476Z,38.45
2023-05-14T21:20:09.770Z,37.25
2023-05-14T21:22:39.262Z,33.42
2023-05-14T21:25:08.129Z,32.40
2023-05-14T21:27:36.433Z,35.83
2023-05-14T21:30:04.868Z,33.72
2023-05-14T21:32:33.170Z,34.75
2023-05-14T21:35:01.417Z,32.67
2023-05-14T21:37:29.711Z,35.03
2023-05-14T21:39:59.328Z,38.90
2023-05-14T21:42:27.492Z,33.70
2023-05-14T21:44:55.602Z,34.40
2023-05-14T21:47:23.910Z,35.35
2023-05-14T21:49:52.206Z,35.72
2023-05-14T21:52:20.359Z,35.17
2023-05-14T21:54:48.511Z,34.55
2023-05-14T21:57:18.283Z,38.38
2023-05-14T21:59:46.462Z,36.47
2023-05-14T22:02:14.897Z,40.13
2023-05-14T22:04:43.298Z,34.42
2023-05-14T22:07:11.472Z,37.20
2023-05-14T22:09:39.562Z,39.97
2023-05-14T22:12:08.707Z,45.38
2023-05-14T22:14:38.250Z,40.10
2023-05-14T22:17:06.485Z,41.55
2023-05-14T22:19:34.886Z,41.75
2023-05-14T22:22:03.259Z,41.22
2023-05-14T22:24:31.579Z,39.05
2023-05-14T22:26:59.796Z,42.42
2023-05-14T22:29:27.930Z,41.55
2023-05-14T22:31:57.776Z,44.78
2023-05-14T22:34:26.205Z,43.25
2023-05-14T22:36:54.383Z,46.65
2023-05-14T22:39:22.733Z,47.58
2023-05-14T22:41:54.890Z,41.92
2023-05-14T22:44:23.668Z,44.20
2023-05-14T22:46:52.227Z,43.22
2023-05-14T22:49:21.800Z,42.75
2023-05-14T22:51:50.048Z,43.35
2023-05-14T22:54:18.434Z,48.70
2023-05-14T22:56:46.608Z,43.63
2023-05-14T22:59:15.034Z,49.45
2023-05-14T23:01:43.470Z,44.22
2023-05-14T23:04:11.632Z,46.38
2023-05-14T23:06:41.337Z,43.15
2023-05-14T23:09:09.505Z,50.80
2023-05-14T23:11:37.644Z,49.60
2023-05-14T23:14:05.952Z,43.42
2023-05-14T23:16:34.122Z,45.08
2023-05-14T23:19:02.521Z,48.03
2023-05-14T23:21:31.087Z,49.08
2023-05-14T23:24:01.108Z,46.92
2023-05-14T23:26:29.468Z,55.58
2023-05-14T23:28:57.714Z,50.35
2023-05-14T23:31:26.103Z,55.45
2023-05-14T23:33:54.279Z,49.63
2023-05-14T23:36:22.662Z,55.08
2023-05-14T23:38:50.961Z,55.38
2023-05-14T23:41:21.491Z,51.15
2023-05-14T23:43:50.035Z,55.92
2023-05-14T23:46:18.461Z,52.33
2023-05-14T23:48:46.651Z,49.50
2023-05-14T23:51:15.249Z,56.33
2023-05-14T23:53:43.787Z,57.72
2023-05-14T23:56:11.973Z,50.60
2023-05-14T23:58:41.981Z,51.83
